sensor_id;sensor_type;location;lat;lon;timestamp;pressure;altitude;pressure_sealevel;temperature;humidity
58739;BME280;44512;53.046;18.604;2022-07-23T00:07:39;101738.95;;;26.71;47.65
58739;BME280;44512;53.046;18.604;2022-07-23T00:18:06;101733.46;;;26.56;47.79
58739;BME280;44512;53.046;18.604;2022-07-23T00:28:35;101731.82;;;26.39;47.87
58739;BME280;44512;53.046;18.604;2022-07-23T00:39:03;101731.60;;;26.15;48.63
58739;BME280;44512;53.046;18.604;2022-07-23T00:49:32;101735.25;;;26.06;48.68
58739;BME280;44512;53.046;18.604;2022-07-23T01:00:00;101735.81;;;25.92;48.67
58739;BME280;44512;53.046;18.604;2022-07-23T01:10:28;101722.50;;;25.69;49.07
58739;BME280;44512;53.046;18.604;2022-07-23T01:20:57;101729.95;;;25.53;49.57
58739;BME280;44512;53.046;18.604;2022-07-23T01:31:26;101727.46;;;25.41;50.04
58739;BME280;44512;53.046;18.604;2022-07-23T01:41:53;101716.92;;;25.23;50.42
58739;BME280;44512;53.046;18.604;2022-07-23T01:52:22;101714.66;;;25.10;50.81
58739;BME280;44512;53.046;18.604;2022-07-23T02:02:50;101718.52;;;25.04;50.65
58739;BME280;44512;53.046;18.604;2022-07-23T02:13:18;101699.09;;;24.88;50.89
58739;BME280;44512;53.046;18.604;2022-07-23T02:23:47;101700.69;;;24.69;52.02
58739;BME280;44512;53.046;18.604;2022-07-23T02:34:15;101693.98;;;24.60;52.29
58739;BME280;44512;53.046;18.604;2022-07-23T02:44:44;101712.23;;;24.51;52.31
58739;BME280;44512;53.046;18.604;2022-07-23T02:55:12;101710.73;;;24.33;52.76
58739;BME280;44512;53.046;18.604;2022-07-23T03:05:40;101714.29;;;24.28;52.39
58739;BME280;44512;53.046;18.604;2022-07-23T03:16:09;101700.69;;;24.16;52.20
58739;BME280;44512;53.046;18.604;2022-07-23T03:26:37;101714.69;;;24.00;52.72
58739;BME280;44512;53.046;18.604;2022-07-23T03:37:06;101710.23;;;23.94;53.09
58739;BME280;44512;53.046;18.604;2022-07-23T03:47:34;101699.69;;;23.90;52.92
58739;BME280;44512;53.046;18.604;2022-07-23T03:58:02;101699.06;;;23.78;53.00
58739;BME280;44512;53.046;18.604;2022-07-23T04:08:31;101681.85;;;23.71;54.18
58739;BME280;44512;53.046;18.604;2022-07-23T04:18:59;101678.88;;;23.78;54.65
58739;BME280;44512;53.046;18.604;2022-07-23T04:29:27;101670.27;;;23.74;55.21
58739;BME280;44512;53.046;18.604;2022-07-23T04:39:56;101663.61;;;23.70;56.15
58739;BME280;44512;53.046;18.604;2022-07-23T04:50:24;101665.33;;;23.81;56.52
58739;BME280;44512;53.046;18.604;2022-07-23T05:00:52;101659.56;;;23.88;56.65
58739;BME280;44512;53.046;18.604;2022-07-23T05:11:21;101660.43;;;23.88;57.03
58739;BME280;44512;53.046;18.604;2022-07-23T05:21:49;101668.82;;;24.04;57.07
58739;BME280;44512;53.046;18.604;2022-07-23T05:32:18;101649.54;;;24.19;56.74
58739;BME280;44512;53.046;18.604;2022-07-23T05:42:46;101644.00;;;24.24;56.26
58739;BME280;44512;53.046;18.604;2022-07-23T05:53:15;101633.60;;;24.36;56.17
58739;BME280;44512;53.046;18.604;2022-07-23T06:03:43;101624.52;;;24.51;55.94
58739;BME280;44512;53.046;18.604;2022-07-23T06:14:12;101623.14;;;24.59;55.46
58739;BME280;44512;53.046;18.604;2022-07-23T06:24:40;101605.20;;;24.72;55.37
58739;BME280;44512;53.046;18.604;2022-07-23T06:35:08;101603.82;;;24.89;55.03
58739;BME280;44512;53.046;18.604;2022-07-23T06:45:36;101613.55;;;25.02;54.63
58739;BME280;44512;53.046;18.604;2022-07-23T06:56:05;101629.34;;;25.12;53.98
58739;BME280;44512;53.046;18.604;2022-07-23T07:06:33;101627.15;;;25.34;53.30
58739;BME280;44512;53.046;18.604;2022-07-23T07:17:01;101609.93;;;25.53;52.40
58739;BME280;44512;53.046;18.604;2022-07-23T07:27:30;101613.80;;;25.72;50.91
58739;BME280;44512;53.046;18.604;2022-07-23T07:37:59;101612.63;;;25.98;49.71
58739;BME280;44512;53.046;18.604;2022-07-23T07:48:26;101606.46;;;26.22;49.16
58739;BME280;44512;53.046;18.604;2022-07-23T07:58:55;101609.70;;;26.39;48.76
58739;BME280;44512;53.046;18.604;2022-07-23T08:09:23;101595.77;;;26.55;47.63
58739;BME280;44512;53.046;18.604;2022-07-23T08:19:51;101594.55;;;26.71;46.89
58739;BME280;44512;53.046;18.604;2022-07-23T08:30:21;101594.05;;;26.64;46.17
58739;BME280;44512;53.046;18.604;2022-07-23T08:40:52;101591.31;;;26.59;45.66
58739;BME280;44512;53.046;18.604;2022-07-23T08:51:17;101579.95;;;26.55;44.73
58739;BME280;44512;53.046;18.604;2022-07-23T09:01:45;101573.83;;;26.58;44.95
58739;BME280;44512;53.046;18.604;2022-07-23T09:12:13;101589.89;;;26.61;44.65
58739;BME280;44512;53.046;18.604;2022-07-23T09:22:46;101585.13;;;26.67;44.44
58739;BME280;44512;53.046;18.604;2022-07-23T09:33:12;101613.13;;;26.75;44.25
58739;BME280;44512;53.046;18.604;2022-07-23T09:43:39;101606.15;;;26.83;44.26
58739;BME280;44512;53.046;18.604;2022-07-23T10:04:35;101629.92;;;26.99;43.60
58739;BME280;44512;53.046;18.604;2022-07-23T10:15:05;101639.34;;;27.04;43.77
58739;BME280;44512;53.046;18.604;2022-07-23T10:25:41;101649.90;;;27.01;44.18
58739;BME280;44512;53.046;18.604;2022-07-23T10:36:08;101657.73;;;26.94;44.67
58739;BME280;44512;53.046;18.604;2022-07-23T10:51:29;101662.83;;;26.77;48.58
58739;BME280;44512;53.046;18.604;2022-07-23T11:12:32;101684.13;;;26.32;53.09
58739;BME280;44512;53.046;18.604;2022-07-23T11:22:56;101686.40;;;26.05;54.72
58739;BME280;44512;53.046;18.604;2022-07-23T11:33:22;101695.63;;;25.80;55.58
58739;BME280;44512;53.046;18.604;2022-07-23T11:43:54;101693.38;;;25.56;56.75
58739;BME280;44512;53.046;18.604;2022-07-23T11:54:19;101679.23;;;25.42;57.20
58739;BME280;44512;53.046;18.604;2022-07-23T12:04:49;101658.16;;;25.26;56.83
58739;BME280;44512;53.046;18.604;2022-07-23T12:15:18;101661.51;;;25.18;57.12
58739;BME280;44512;53.046;18.604;2022-07-23T12:25:46;101651.51;;;25.12;57.58
58739;BME280;44512;53.046;18.604;2022-07-23T12:36:13;101659.80;;;25.07;57.99
58739;BME280;44512;53.046;18.604;2022-07-23T12:46:41;101645.93;;;25.02;58.33
58739;BME280;44512;53.046;18.604;2022-07-23T12:57:10;101643.43;;;25.00;59.05
58739;BME280;44512;53.046;18.604;2022-07-23T13:07:38;101652.57;;;25.01;59.45
58739;BME280;44512;53.046;18.604;2022-07-23T13:18:06;101628.75;;;25.00;59.70
58739;BME280;44512;53.046;18.604;2022-07-23T13:28:34;101639.02;;;25.04;60.45
58739;BME280;44512;53.046;18.604;2022-07-23T13:39:04;101623.80;;;25.12;61.38
58739;BME280;44512;53.046;18.604;2022-07-23T13:49:31;101630.20;;;25.23;61.74
58739;BME280;44512;53.046;18.604;2022-07-23T14:00:00;101636.01;;;25.36;61.65
58739;BME280;44512;53.046;18.604;2022-07-23T14:10:28;101624.91;;;25.46;60.66
58739;BME280;44512;53.046;18.604;2022-07-23T14:20:56;101610.51;;;25.55;59.81
58739;BME280;44512;53.046;18.604;2022-07-23T14:31:24;101626.02;;;25.61;59.38
58739;BME280;44512;53.046;18.604;2022-07-23T14:41:53;101618.24;;;25.63;58.60
58739;BME280;44512;53.046;18.604;2022-07-23T14:52:21;101610.49;;;25.65;58.48
58739;BME280;44512;53.046;18.604;2022-07-23T15:02:50;101604.95;;;25.65;58.68
58739;BME280;44512;53.046;18.604;2022-07-23T15:13:18;101610.49;;;25.65;58.08
58739;BME280;44512;53.046;18.604;2022-07-23T15:23:47;101589.13;;;25.65;58.45
58739;BME280;44512;53.046;18.604;2022-07-23T15:34:15;101613.26;;;25.70;59.36
58739;BME280;44512;53.046;18.604;2022-07-23T15:44:43;101602.70;;;25.72;58.77
58739;BME280;44512;53.046;18.604;2022-07-23T15:55:11;101592.20;;;25.69;57.89
58739;BME280;44512;53.046;18.604;2022-07-23T16:05:42;101579.42;;;25.63;57.74
58739;BME280;44512;53.046;18.604;2022-07-23T16:16:08;101587.49;;;25.59;58.35
58739;BME280;44512;53.046;18.604;2022-07-23T16:26:36;101584.44;;;25.56;58.21
58739;BME280;44512;53.046;18.604;2022-07-23T16:37:08;101588.33;;;25.55;58.62
58739;BME280;44512;53.046;18.604;2022-07-23T16:47:33;101588.33;;;25.55;58.55
58739;BME280;44512;53.046;18.604;2022-07-23T16:58:02;101586.94;;;25.52;57.60
58739;BME280;44512;53.046;18.604;2022-07-23T17:08:30;101586.70;;;25.43;57.02
58739;BME280;44512;53.046;18.604;2022-07-23T17:18:58;101586.41;;;25.40;56.89
58739;BME280;44512;53.046;18.604;2022-07-23T17:29:27;101596.95;;;25.33;57.18
58739;BME280;44512;53.046;18.604;2022-07-23T17:39:55;101601.63;;;25.07;57.03
58739;BME280;44512;53.046;18.604;2022-07-23T17:50:23;101600.23;;;24.94;58.19
58739;BME280;44512;53.046;18.604;2022-07-23T18:00:51;101594.97;;;24.87;58.71
58739;BME280;44512;53.046;18.604;2022-07-23T18:11:20;101587.48;;;24.83;59.05
58739;BME280;44512;53.046;18.604;2022-07-23T18:21:48;101591.08;;;24.78;59.22
58739;BME280;44512;53.046;18.604;2022-07-23T18:32:16;101601.59;;;24.71;58.58
58739;BME280;44512;53.046;18.604;2022-07-23T18:42:45;101604.60;;;24.64;57.45
58739;BME280;44512;53.046;18.604;2022-07-23T18:53:13;101630.31;;;24.55;56.92
58739;BME280;44512;53.046;18.604;2022-07-23T19:03:41;101643.59;;;24.48;56.75
58739;BME280;44512;53.046;18.604;2022-07-23T19:14:10;101645.77;;;24.35;56.63
58739;BME280;44512;53.046;18.604;2022-07-23T19:24:38;101654.53;;;24.27;56.77
58739;BME280;44512;53.046;18.604;2022-07-23T19:35:08;101657.83;;;24.24;56.95
58739;BME280;44512;53.046;18.604;2022-07-23T19:45:36;101666.14;;;24.19;57.30
58739;BME280;44512;53.046;18.604;2022-07-23T19:56:04;101671.09;;;24.17;57.58
58739;BME280;44512;53.046;18.604;2022-07-23T20:06:32;101680.77;;;24.14;57.79
58739;BME280;44512;53.046;18.604;2022-07-23T20:17:01;101697.58;;;24.08;58.05
58739;BME280;44512;53.046;18.604;2022-07-23T20:27:28;101711.85;;;23.89;57.88
58739;BME280;44512;53.046;18.604;2022-07-23T20:37:57;101734.41;;;23.76;57.00
58739;BME280;44512;53.046;18.604;2022-07-23T20:48:25;101743.72;;;23.65;55.70
58739;BME280;44512;53.046;18.604;2022-07-23T20:58:53;101748.62;;;23.58;55.00
58739;BME280;44512;53.046;18.604;2022-07-23T21:09:22;101754.65;;;23.55;54.09
58739;BME280;44512;53.046;18.604;2022-07-23T21:19:50;101755.70;;;23.49;53.41
58739;BME280;44512;53.046;18.604;2022-07-23T21:30:18;101755.60;;;23.38;53.21
58739;BME280;44512;53.046;18.604;2022-07-23T21:40:47;101779.26;;;23.29;53.04
58739;BME280;44512;53.046;18.604;2022-07-23T21:51:15;101798.42;;;23.14;52.54
58739;BME280;44512;53.046;18.604;2022-07-23T22:01:43;101804.35;;;23.01;51.31
58739;BME280;44512;53.046;18.604;2022-07-23T22:12:12;101810.21;;;22.87;50.43
58739;BME280;44512;53.046;18.604;2022-07-23T22:22:45;101812.27;;;22.75;49.91
58739;BME280;44512;53.046;18.604;2022-07-23T22:33:08;101819.81;;;22.63;49.53
58739;BME280;44512;53.046;18.604;2022-07-23T22:43:37;101822.68;;;22.51;49.44
58739;BME280;44512;53.046;18.604;2022-07-23T22:54:05;101834.93;;;22.39;49.53
58739;BME280;44512;53.046;18.604;2022-07-23T23:04:33;101831.41;;;22.26;49.71
58739;BME280;44512;53.046;18.604;2022-07-23T23:15:03;101828.41;;;22.11;49.97
58739;BME280;44512;53.046;18.604;2022-07-23T23:25:30;101815.42;;;21.95;50.33
58739;BME280;44512;53.046;18.604;2022-07-23T23:35:58;101833.36;;;21.80;50.83
58739;BME280;44512;53.046;18.604;2022-07-23T23:46:27;101821.00;;;21.66;51.54
58739;BME280;44512;53.046;18.604;2022-07-23T23:56:55;101823.80;;;21.54;52.10
